Weather at London Gatwick Airport

Public forecast

Using degrees Celsius for public forecast. Weather courtesy of forecast.io.

Current aviation weather report (METAR) for London Gatwick Airport

Retrieved 2021/05/11 19:50 UTC (10 minutes ago):

EGKK 111950Z 21011KT 9999 FEW014 BKN022 11/08 Q1008

Aviation forecast (TAF) for London Gatwick Airport

Retrieved 2021/05/11 18:00 UTC (2 hours ago):

TAF EGKK 111653Z 1118/1224 19010KT 9999 SCT045 PROB30 TEMPO 1120/1206 BKN014 PROB30 TEMPO 1208/1214 7000 SHRA BECMG 1218/1221 10005KT